Time;durP1;ratioP1;P1;durP2;ratioP2;P2;SDS_P1;SDS_P2;PMS_P1;PMS_P2;Temp;Humidity;BMP_temperature;BMP_pressure;BME280_temperature;BME280_humidity;BME280_pressure;Samples;Min_cycle;Max_cycle;Signal;HPM_P1;HPM_P2
2023/08/11 00:00:25;;;;;;;6.60;3.80;;;;;;;20.80;54.24;97936.19;5086814;28;21331;-70
2023/08/11 00:02:50;;;;;;;4.27;3.70;;;;;;;20.79;54.39;97937.25;5086547;28;20438;-70
2023/08/11 00:05:19;;;;;;;3.83;3.53;;;;;;;20.77;54.59;97933.97;5087878;28;20206;-71
2023/08/11 00:07:46;;;;;;;15.10;4.50;;;;;;;20.78;54.39;97924.97;5086062;28;20215;-70
2023/08/11 00:10:14;;;;;;;5.03;3.80;;;;;;;20.79;54.25;97923.94;5086382;28;20842;-70
2023/08/11 00:12:40;;;;;;;5.47;3.30;;;;;;;20.75;54.40;97920.03;5098714;28;20915;-69
2023/08/11 00:15:09;;;;;;;5.23;3.90;;;;;;;20.74;54.11;97926.34;5091567;28;20443;-69
2023/08/11 00:17:34;;;;;;;5.53;4.20;;;;;;;20.71;54.56;97924.91;5084923;28;20181;-71
2023/08/11 00:20:00;;;;;;;4.97;3.87;;;;;;;20.70;54.46;97918.75;5090865;28;20439;-70
2023/08/11 00:22:26;;;;;;;4.70;3.80;;;;;;;20.65;54.57;97929.19;5087324;28;20186;-70
2023/08/11 00:24:51;;;;;;;5.43;4.03;;;;;;;20.65;54.43;97925.69;5084015;28;20201;-70
2023/08/11 00:27:17;;;;;;;6.93;3.83;;;;;;;20.60;55.00;97934.28;5087035;28;20264;-73
2023/08/11 00:29:42;;;;;;;3.90;3.47;;;;;;;20.54;54.91;97929.75;5098001;28;20638;-71
2023/08/11 00:32:08;;;;;;;8.03;3.80;;;;;;;20.51;54.92;97930.16;5091327;28;20610;-72
2023/08/11 00:34:34;;;;;;;5.30;3.83;;;;;;;20.51;55.16;97935.47;5095063;28;20201;-70
2023/08/11 00:36:59;;;;;;;5.23;4.20;;;;;;;20.51;54.79;97928.31;5087475;28;20429;-71
2023/08/11 00:39:25;;;;;;;4.40;4.00;;;;;;;20.51;54.89;97935.47;5085902;28;20186;-71
2023/08/11 00:41:50;;;;;;;4.57;3.60;;;;;;;20.49;55.04;97933.00;5091664;28;20193;-70
2023/08/11 00:44:16;;;;;;;4.50;3.97;;;;;;;20.44;55.09;97935.44;5090487;28;20201;-71
2023/08/11 00:46:43;;;;;;;3.90;3.50;;;;;;;20.42;54.96;97932.97;5090536;28;20269;-71
2023/08/11 00:49:09;;;;;;;6.40;4.10;;;;;;;20.41;55.09;97936.66;5100049;28;20181;-72
2023/08/11 00:51:35;;;;;;;5.60;4.27;;;;;;;20.38;55.21;97931.75;5091553;28;20752;-70
2023/08/11 00:54:01;;;;;;;6.00;5.40;;;;;;;20.33;55.22;97928.84;5085819;28;20457;-71
2023/08/11 00:56:26;;;;;;;4.40;4.00;;;;;;;20.28;55.70;97931.28;5099797;28;20200;-71
2023/08/11 00:58:53;;;;;;;4.43;4.03;;;;;;;20.23;55.45;97939.03;5094153;28;20416;-70
2023/08/11 01:01:18;;;;;;;7.23;3.80;;;;;;;20.22;55.75;97932.06;5097886;28;20194;-70
2023/08/11 01:03:47;;;;;;;4.17;3.77;;;;;;;20.22;55.58;97927.56;5085109;28;20451;-70
2023/08/11 01:06:16;;;;;;;6.13;4.80;;;;;;;20.20;55.60;97939.41;5072266;28;20174;-72
2023/08/11 01:09:00;;;;;;;6.93;3.63;;;;;;;20.16;55.79;97932.84;5082449;28;20412;-70
2023/08/11 01:11:38;;;;;;;4.10;3.70;;;;;;;20.17;55.71;97943.28;5092036;28;20408;-71
2023/08/11 01:14:09;;;;;;;5.20;3.80;;;;;;;20.17;55.84;97939.78;5097771;28;20488;-71
2023/08/11 01:16:36;;;;;;;8.03;3.90;;;;;;;20.12;56.02;97944.91;5096456;28;20419;-70
2023/08/11 01:19:03;;;;;;;5.13;4.17;;;;;;;20.10;56.07;97940.59;5085404;28;21160;-71
2023/08/11 01:21:33;;;;;;;5.43;4.00;;;;;;;20.12;56.27;97932.41;5089984;28;20511;-70
2023/08/11 01:24:00;;;;;;;4.10;3.60;;;;;;;20.16;55.57;97938.19;5084107;28;20440;-70
2023/08/11 01:26:26;;;;;;;5.53;3.97;;;;;;;20.08;56.17;97945.28;5082290;28;20448;-69
2023/08/11 01:28:53;;;;;;;6.83;3.90;;;;;;;20.03;55.89;97946.88;5095216;28;20436;-70
2023/08/11 01:31:19;;;;;;;9.53;4.20;;;;;;;19.98;56.28;97946.63;5095952;28;20403;-72
2023/08/11 01:33:44;;;;;;;4.23;3.57;;;;;;;19.87;56.68;97950.69;5085974;28;22187;-71
2023/08/11 01:36:10;;;;;;;4.30;3.60;;;;;;;19.86;56.57;97960.47;5092327;28;20259;-70
2023/08/11 01:38:35;;;;;;;4.77;3.80;;;;;;;19.87;56.54;97958.66;5085042;28;20205;-70
2023/08/11 01:41:01;;;;;;;5.47;4.20;;;;;;;19.84;56.69;97962.50;5097242;28;20203;-71
2023/08/11 01:43:28;;;;;;;4.33;3.93;;;;;;;19.86;56.46;97959.63;5088048;28;20198;-70
2023/08/11 01:45:54;;;;;;;4.67;3.77;;;;;;;19.81;56.71;97960.22;5084953;28;20295;-70
2023/08/11 01:48:20;;;;;;;4.90;3.80;;;;;;;19.69;56.83;97962.56;5095946;28;20423;-72
2023/08/11 01:50:46;;;;;;;3.90;3.60;;;;;;;19.77;57.01;97964.28;5084671;28;20311;-71
2023/08/11 01:53:12;;;;;;;14.73;3.90;;;;;;;19.77;56.64;97961.63;5082167;28;20440;-71
2023/08/11 01:55:38;;;;;;;5.57;3.83;;;;;;;19.78;56.76;97953.44;5085946;28;20177;-70
2023/08/11 01:58:03;;;;;;;6.13;3.57;;;;;;;19.84;56.78;97951.03;5089902;28;20415;-70
2023/08/11 02:00:29;;;;;;;4.60;3.87;;;;;;;19.76;56.74;97949.34;5086074;28;20763;-70
2023/08/11 02:02:54;;;;;;;4.10;3.70;;;;;;;19.73;57.02;97939.91;5088382;28;20575;-71
2023/08/11 02:05:20;;;;;;;3.33;3.03;;;;;;;19.73;56.96;97945.22;5089312;28;20222;-71
2023/08/11 02:07:45;;;;;;;4.63;3.83;;;;;;;19.74;56.91;97948.69;5080596;28;20273;-70
2023/08/11 02:10:12;;;;;;;4.00;3.60;;;;;;;19.77;56.83;97943.84;5087561;28;20862;-70
2023/08/11 02:12:38;;;;;;;5.07;3.97;;;;;;;19.74;56.55;97944.22;5088571;28;20699;-71
2023/08/11 02:15:05;;;;;;;4.37;3.90;;;;;;;19.69;56.70;97937.84;5088814;28;20440;-71
2023/08/11 02:17:31;;;;;;;8.30;3.83;;;;;;;19.62;56.84;97943.91;5086563;28;20412;-71
2023/08/11 02:19:58;;;;;;;4.13;3.67;;;;;;;19.61;57.01;97946.78;5087322;28;20827;-72
2023/08/11 02:22:24;;;;;;;5.70;3.53;;;;;;;19.54;57.02;97945.88;5087369;28;20424;-71
2023/08/11 02:24:49;;;;;;;8.03;3.57;;;;;;;19.54;57.41;97945.88;5084779;28;20443;-70
2023/08/11 02:27:14;;;;;;;6.97;4.07;;;;;;;19.52;57.38;97948.75;5088427;28;20201;-71
2023/08/11 02:29:40;;;;;;;6.23;4.23;;;;;;;19.53;57.17;97953.03;5081016;28;20204;-70
2023/08/11 02:32:06;;;;;;;5.40;3.60;;;;;;;19.51;57.26;97948.94;5098741;28;20174;-71
2023/08/11 02:34:32;;;;;;;5.13;3.90;;;;;;;19.51;57.25;97952.41;5083223;28;20282;-70
2023/08/11 02:36:57;;;;;;;6.00;3.70;;;;;;;19.53;57.23;97941.59;5083905;28;20265;-72
2023/08/11 02:39:23;;;;;;;4.40;3.50;;;;;;;19.54;57.14;97944.06;5084126;28;20220;-69
2023/08/11 02:41:49;;;;;;;6.50;3.63;;;;;;;19.55;56.87;97936.88;5095214;28;20197;-71
2023/08/11 02:44:14;;;;;;;3.43;3.13;;;;;;;19.57;57.11;97940.19;5098557;28;20193;-72
2023/08/11 02:46:40;;;;;;;3.47;3.17;;;;;;;19.57;56.57;97948.16;5092437;28;20429;-71
2023/08/11 02:49:07;;;;;;;3.30;3.00;;;;;;;19.56;56.58;97949.16;5088602;28;20178;-71
2023/08/11 02:51:32;;;;;;;4.40;3.77;;;;;;;19.49;56.30;97939.31;5087055;28;20416;-70
2023/08/11 02:53:58;;;;;;;4.63;4.07;;;;;;;19.49;56.68;97939.31;5088577;28;20430;-70
2023/08/11 02:56:23;;;;;;;5.40;3.47;;;;;;;19.48;56.97;97944.81;5088472;28;20179;-70
2023/08/11 02:58:49;;;;;;;4.23;3.60;;;;;;;19.46;57.03;97946.84;5087992;28;20308;-71
2023/08/11 03:01:15;;;;;;;6.03;3.70;;;;;;;19.46;57.05;97945.00;5088112;28;20696;-70
2023/08/11 03:03:42;;;;;;;5.47;3.53;;;;;;;19.47;57.09;97936.03;5083565;28;20207;-71
2023/08/11 03:06:10;;;;;;;4.67;3.40;;;;;;;19.46;57.11;97933.56;5089702;28;20260;-69
2023/08/11 03:08:39;;;;;;;4.90;3.83;;;;;;;19.44;57.19;97952.34;5086736;28;20424;-69
2023/08/11 03:11:04;;;;;;;5.23;3.40;;;;;;;19.42;57.06;97942.94;5098350;28;20436;-71
2023/08/11 03:13:30;;;;;;;3.93;3.53;;;;;;;19.37;57.13;97940.84;5083832;28;20459;-71
2023/08/11 03:15:56;;;;;;;7.77;3.73;;;;;;;19.37;56.99;97942.66;5086229;28;20738;-70
2023/08/11 03:18:21;;;;;;;4.10;3.30;;;;;;;19.36;57.12;97944.53;5096581;28;20502;-71
2023/08/11 03:20:47;;;;;;;3.33;3.03;;;;;;;19.35;57.27;97942.88;5067547;28;20206;-70
2023/08/11 03:23:13;;;;;;;3.60;3.30;;;;;;;19.33;57.38;97942.22;5076260;28;20190;-70
2023/08/11 03:25:39;;;;;;;4.07;3.67;;;;;;;19.33;57.19;97932.44;5076972;28;20170;-70
2023/08/11 03:28:05;;;;;;;8.37;3.63;;;;;;;19.33;57.09;97943.06;5084018;28;20503;-71
2023/08/11 03:30:30;;;;;;;7.30;3.40;;;;;;;19.34;56.96;97942.03;5083072;28;20188;-72
2023/08/11 03:32:56;;;;;;;5.83;3.67;;;;;;;19.30;57.04;97931.97;5075283;28;20182;-71
2023/08/11 03:35:21;;;;;;;3.80;3.43;;;;;;;19.17;57.24;97941.47;5083438;28;20175;-71
2023/08/11 03:37:47;;;;;;;4.00;3.67;;;;;;;19.20;57.67;97945.59;5083657;28;20177;-71
2023/08/11 03:40:13;;;;;;;5.97;3.93;;;;;;;19.20;57.44;97945.59;5084262;28;20323;-73
2023/08/11 03:42:42;;;;;;;4.80;3.20;;;;;;;19.19;57.40;97941.31;5079816;28;20177;-72
2023/08/11 03:45:11;;;;;;;4.77;3.60;;;;;;;19.13;57.32;97940.22;5079425;28;20205;-72
2023/08/11 03:47:37;;;;;;;6.47;3.90;;;;;;;19.10;57.04;97940.59;5084130;28;20404;-72
2023/08/11 03:50:02;;;;;;;4.13;3.50;;;;;;;19.08;57.60;97942.63;5076661;28;20468;-71
2023/08/11 03:52:28;;;;;;;4.47;4.07;;;;;;;19.06;57.25;97941.97;5085599;28;20307;-71
2023/08/11 03:54:53;;;;;;;4.13;3.60;;;;;;;19.06;57.51;97944.63;5082526;28;20280;-71
2023/08/11 03:57:19;;;;;;;3.77;3.37;;;;;;;19.06;57.54;97943.81;5084250;28;20283;-72
2023/08/11 03:59:44;;;;;;;3.83;3.50;;;;;;;19.07;57.29;97940.97;5077683;28;20654;-71
2023/08/11 04:02:10;;;;;;;4.40;3.63;;;;;;;19.04;57.40;97949.31;5082901;28;20793;-72
2023/08/11 04:04:35;;;;;;;3.90;3.00;;;;;;;19.03;57.49;97956.47;5083431;28;20713;-73
2023/08/11 04:07:01;;;;;;;5.87;3.90;;;;;;;19.03;57.56;97951.16;5084431;28;20629;-69
2023/08/11 04:09:26;;;;;;;5.83;3.87;;;;;;;18.98;57.45;97950.06;5083513;28;20182;-71
2023/08/11 04:11:52;;;;;;;3.60;3.30;;;;;;;18.98;57.82;97944.75;5084679;28;20265;-71
2023/08/11 04:14:17;;;;;;;4.67;3.50;;;;;;;18.99;57.87;97954.38;5078099;28;20202;-71
2023/08/11 04:16:43;;;;;;;3.20;2.90;;;;;;;19.04;57.71;97957.28;5079224;28;20178;-71
2023/08/11 04:19:09;;;;;;;5.90;4.10;;;;;;;18.98;57.80;97952.72;5085454;28;20182;-72
2023/08/11 04:21:35;;;;;;;5.27;4.00;;;;;;;18.99;57.92;97951.72;5078770;28;20709;-70
2023/08/11 04:24:02;;;;;;;3.97;3.60;;;;;;;18.99;57.79;97943.75;5082723;28;20443;-70
2023/08/11 04:26:27;;;;;;;4.27;3.57;;;;;;;18.99;57.24;97943.75;5082987;28;20181;-70
2023/08/11 04:28:53;;;;;;;5.27;4.20;;;;;;;18.99;57.71;97943.75;5082101;28;20489;-69
2023/08/11 04:31:18;;;;;;;6.23;4.00;;;;;;;19.02;57.70;97944.19;5086858;28;20549;-71
2023/08/11 04:33:43;;;;;;;9.30;4.37;;;;;;;19.03;57.73;97940.53;5083516;28;20272;-72
2023/08/11 04:36:09;;;;;;;5.20;3.80;;;;;;;19.04;57.62;97946.66;5083193;28;20223;-71
2023/08/11 04:38:34;;;;;;;3.57;3.27;;;;;;;19.03;57.67;97947.66;5090474;28;20258;-73
2023/08/11 04:41:00;;;;;;;7.20;3.80;;;;;;;19.03;57.84;97943.19;5087890;28;20250;-70
2023/08/11 04:43:25;;;;;;;8.17;4.00;;;;;;;19.08;58.03;97947.94;5082514;28;20217;-71
2023/08/11 04:45:51;;;;;;;5.30;4.30;;;;;;;19.06;58.00;97941.97;5083237;28;20177;-71
2023/08/11 04:48:16;;;;;;;9.93;4.20;;;;;;;19.05;58.12;97940.31;5089204;28;20280;-71
2023/08/11 04:50:42;;;;;;;4.53;4.03;;;;;;;19.08;58.17;97947.13;5085943;28;20584;-72
2023/08/11 04:53:08;;;;;;;5.87;4.07;;;;;;;19.13;58.14;97936.72;5079865;28;20642;-73
2023/08/11 04:55:34;;;;;;;5.10;3.70;;;;;;;19.18;58.17;97943.13;5086338;28;20169;-72
2023/08/11 04:58:00;;;;;;;5.73;4.20;;;;;;;19.23;58.13;97936.41;5085963;28;20434;-70
2023/08/11 05:00:26;;;;;;;4.83;4.07;;;;;;;19.27;57.84;97941.16;5078713;28;20456;-73
2023/08/11 05:02:52;;;;;;;5.37;3.93;;;;;;;19.32;57.71;97949.41;5083097;28;20185;-71
2023/08/11 05:05:19;;;;;;;7.70;4.37;;;;;;;19.39;57.96;97949.47;5086616;28;20202;-70
2023/08/11 05:07:45;;;;;;;5.10;3.97;;;;;;;19.43;57.57;97953.34;5083251;28;20937;-71
2023/08/11 05:10:11;;;;;;;4.47;4.07;;;;;;;19.45;57.66;97958.50;5076605;28;20455;-71
2023/08/11 05:12:36;;;;;;;5.30;4.00;;;;;;;19.47;57.92;97951.97;5086472;28;20420;-72
2023/08/11 05:15:03;;;;;;;6.57;4.40;;;;;;;19.51;57.96;97954.25;5084855;28;20198;-70
2023/08/11 05:17:29;;;;;;;6.20;4.53;;;;;;;19.54;58.25;97959.16;5081151;28;20667;-72
2023/08/11 05:19:54;;;;;;;5.10;4.20;;;;;;;19.58;57.55;97955.13;5083686;28;20443;-71
2023/08/11 05:22:20;;;;;;;10.00;4.20;;;;;;;19.62;57.16;97959.06;5079441;28;20462;-70
2023/08/11 05:24:45;;;;;;;5.73;4.00;;;;;;;19.70;57.28;97961.56;5096372;28;20206;-70
2023/08/11 05:27:11;;;;;;;4.57;3.50;;;;;;;19.75;56.99;97963.63;5085205;28;20544;-73
2023/08/11 05:29:37;;;;;;;6.60;4.03;;;;;;;19.83;56.56;97963.50;5085330;28;20239;-71
2023/08/11 05:32:02;;;;;;;4.63;4.10;;;;;;;19.93;56.72;97965.84;5081824;28;20745;-71
2023/08/11 05:34:28;;;;;;;4.50;3.77;;;;;;;20.01;56.41;97965.72;5081651;28;20210;-70
2023/08/11 05:36:53;;;;;;;10.00;4.37;;;;;;;20.07;56.37;97972.09;5083302;28;20269;-71
2023/08/11 05:39:19;;;;;;;5.20;4.07;;;;;;;20.13;56.17;97965.16;5082875;28;20272;-70
2023/08/11 05:41:44;;;;;;;6.90;4.20;;;;;;;20.17;56.20;97966.41;5088574;28;20205;-70
2023/08/11 05:44:09;;;;;;;8.07;4.40;;;;;;;20.24;56.14;97969.94;5092811;28;20300;-71
2023/08/11 05:46:35;;;;;;;7.60;4.37;;;;;;;20.26;56.64;97970.56;5087803;28;20713;-70
2023/08/11 05:49:00;;;;;;;9.07;4.27;;;;;;;20.32;56.54;97977.75;5094218;28;20638;-71
2023/08/11 05:51:26;;;;;;;13.20;4.73;;;;;;;20.42;56.04;97964.91;5091707;28;20180;-70
2023/08/11 05:53:51;;;;;;;9.57;4.10;;;;;;;20.53;56.06;97970.72;5089215;28;20281;-70
2023/08/11 05:56:17;;;;;;;8.27;4.20;;;;;;;20.66;55.57;97975.25;5091545;28;20193;-71
2023/08/11 05:58:42;;;;;;;8.07;4.57;;;;;;;20.76;55.37;97974.94;5095814;28;20632;-70
2023/08/11 06:01:08;;;;;;;6.13;4.10;;;;;;;20.86;55.32;97970.06;5085187;28;20206;-70
2023/08/11 06:03:33;;;;;;;5.63;4.60;;;;;;;20.98;55.08;97963.13;5081875;28;20905;-71
2023/08/11 06:06:00;;;;;;;5.80;4.40;;;;;;;21.10;54.69;97970.53;5082992;28;20186;-70
2023/08/11 06:08:26;;;;;;;6.60;4.40;;;;;;;21.24;54.72;97974.84;5086694;28;20529;-71
2023/08/11 06:10:52;;;;;;;5.80;4.43;;;;;;;21.39;54.38;97971.19;5089241;28;20423;-70
2023/08/11 06:13:17;;;;;;;6.90;3.80;;;;;;;21.56;54.39;97972.44;5085196;28;20181;-71
2023/08/11 06:15:42;;;;;;;4.37;3.97;;;;;;;21.75;54.08;97964.66;5087860;28;20308;-71
2023/08/11 06:18:08;;;;;;;6.90;4.13;;;;;;;21.85;53.54;97959.75;5086485;28;20273;-70
2023/08/11 06:20:33;;;;;;;7.93;4.37;;;;;;;22.04;53.10;97959.94;5088727;28;20285;-71
2023/08/11 06:22:59;;;;;;;6.83;4.00;;;;;;;22.20;53.00;97959.47;5085476;28;20674;-72
2023/08/11 06:25:24;;;;;;;5.03;3.77;;;;;;;22.41;52.83;97954.94;5090026;28;20201;-71
2023/08/11 06:27:50;;;;;;;4.03;3.57;;;;;;;22.61;52.82;97965.56;5076754;28;20190;-72
2023/08/11 06:30:15;;;;;;;4.30;3.80;;;;;;;22.79;52.40;97956.00;5087928;28;20292;-71
2023/08/11 06:32:43;;;;;;;10.47;4.30;;;;;;;22.97;51.89;97963.31;5083290;28;20191;-70
2023/08/11 06:35:08;;;;;;;6.37;3.70;;;;;;;23.13;51.55;97968.16;5081936;28;20210;-72
2023/08/11 06:37:34;;;;;;;7.37;3.90;;;;;;;23.30;51.06;97965.81;5089316;28;20478;-71
2023/08/11 06:39:59;;;;;;;4.87;3.77;;;;;;;23.43;49.26;97966.78;5076805;28;20209;-71
2023/08/11 06:42:25;;;;;;;8.70;3.50;;;;;;;23.60;49.67;97965.22;5088641;28;20481;-72
2023/08/11 06:44:50;;;;;;;3.83;3.43;;;;;;;23.69;48.95;97971.06;5090281;28;20201;-70
2023/08/11 06:47:16;;;;;;;4.13;3.73;;;;;;;23.88;49.37;97971.13;5089685;28;20273;-71
2023/08/11 06:49:42;;;;;;;4.37;3.40;;;;;;;24.06;48.88;97965.88;5089720;28;20417;-70
2023/08/11 06:52:07;;;;;;;3.60;3.30;;;;;;;24.21;49.05;97967.34;5092410;28;20196;-70
2023/08/11 06:54:33;;;;;;;4.10;3.67;;;;;;;24.37;48.96;97965.97;5081204;28;20248;-69
2023/08/11 06:57:02;;;;;;;4.60;3.53;;;;;;;24.52;48.45;97965.56;5081771;28;20194;-71
2023/08/11 06:59:28;;;;;;;5.90;3.57;;;;;;;24.65;47.79;97962.75;5088767;28;20763;-69
2023/08/11 07:01:53;;;;;;;4.60;3.40;;;;;;;24.81;47.26;97963.19;5081339;28;20532;-71
2023/08/11 07:04:19;;;;;;;5.43;3.37;;;;;;;24.95;46.82;97969.19;5080910;28;20299;-69
2023/08/11 07:06:45;;;;;;;6.43;3.43;;;;;;;25.09;46.45;97967.97;5086709;28;20591;-70
2023/08/11 07:09:12;;;;;;;6.10;3.47;;;;;;;25.23;46.33;97965.91;5089327;28;20515;-71
2023/08/11 07:11:37;;;;;;;8.10;3.90;;;;;;;25.37;45.72;97963.03;5085374;28;20793;-70
2023/08/11 07:14:03;;;;;;;3.67;3.10;;;;;;;25.50;45.62;97957.47;5085177;28;20436;-71
2023/08/11 07:16:28;;;;;;;4.33;3.30;;;;;;;25.63;45.24;97955.63;5088695;28;20185;-70
2023/08/11 07:18:54;;;;;;;4.43;3.20;;;;;;;25.73;44.66;97962.06;5090554;28;20201;-70
2023/08/11 07:21:19;;;;;;;4.33;3.67;;;;;;;25.84;44.54;97968.47;5092080;28;20661;-70
2023/08/11 07:23:45;;;;;;;4.13;2.90;;;;;;;26.00;44.74;97966.97;5090659;28;20577;-71
2023/08/11 07:26:10;;;;;;;8.63;3.70;;;;;;;26.14;44.77;97962.22;5095363;28;20186;-71
2023/08/11 07:28:36;;;;;;;4.03;2.77;;;;;;;26.30;44.04;97965.22;5086602;28;20193;-71
2023/08/11 07:31:01;;;;;;;10.83;3.80;;;;;;;26.46;44.09;97964.50;5095241;28;20190;-69
2023/08/11 07:33:27;;;;;;;3.30;3.00;;;;;;;26.63;43.46;97975.34;5086112;28;20232;-71
2023/08/11 07:35:52;;;;;;;5.50;3.10;;;;;;;26.78;43.27;97972.16;5087402;28;20680;-70
2023/08/11 07:38:20;;;;;;;4.17;3.10;;;;;;;26.96;43.09;97975.72;5087036;28;20272;-69
2023/08/11 07:40:47;;;;;;;4.37;3.07;;;;;;;27.10;42.81;97968.97;5088122;28;20216;-69
2023/08/11 07:43:12;;;;;;;4.77;2.80;;;;;;;27.24;42.21;97974.06;5087038;28;20428;-69
2023/08/11 07:45:38;;;;;;;5.83;3.57;;;;;;;27.41;41.99;97974.91;5087559;28;20964;-70
2023/08/11 07:48:03;;;;;;;3.30;3.00;;;;;;;27.58;41.42;97971.44;5082796;28;20181;-68
2023/08/11 07:50:29;;;;;;;5.30;3.23;;;;;;;27.70;40.50;97977.56;5086750;28;20269;-69
2023/08/11 07:52:54;;;;;;;3.07;2.80;;;;;;;27.82;39.95;97972.06;5089918;28;20205;-70
2023/08/11 07:55:20;;;;;;;3.80;3.10;;;;;;;27.98;39.83;97985.78;5086901;28;20205;-71
2023/08/11 07:57:45;;;;;;;4.97;2.87;;;;;;;28.10;39.36;97986.53;5089895;28;20182;-69
2023/08/11 08:00:16;;;;;;;6.27;3.30;;;;;;;28.20;39.25;97983.97;5091414;28;20186;-70
2023/08/11 08:02:43;;;;;;;8.30;3.07;;;;;;;28.35;38.86;97986.06;5088176;28;20789;-71
2023/08/11 08:05:09;;;;;;;4.50;3.23;;;;;;;28.47;38.98;97987.84;5086360;28;20444;-71
2023/08/11 08:07:34;;;;;;;4.23;3.17;;;;;;;28.46;38.51;97983.50;5088369;28;20425;-70
2023/08/11 08:10:00;;;;;;;3.80;3.40;;;;;;;28.48;38.01;97992.16;5086844;28;20516;-69
2023/08/11 08:12:25;;;;;;;4.57;3.20;;;;;;;28.58;38.11;97994.16;5080432;28;22096;-69
2023/08/11 08:14:51;;;;;;;3.30;2.97;;;;;;;28.76;38.14;97993.06;5085372;28;20233;-69
2023/08/11 08:17:16;;;;;;;3.67;3.37;;;;;;;28.88;37.67;97992.94;5078082;28;20913;-69
2023/08/11 08:19:42;;;;;;;4.23;3.10;;;;;;;29.08;38.06;98000.44;5091214;28;20859;-70
2023/08/11 08:22:07;;;;;;;3.93;3.10;;;;;;;29.26;37.18;97986.56;5086389;28;20211;-70
2023/08/11 08:24:33;;;;;;;3.07;2.77;;;;;;;29.38;37.77;97993.72;5080693;28;20576;-70
2023/08/11 08:26:58;;;;;;;3.50;3.20;;;;;;;29.55;37.39;97996.34;5089204;28;20388;-70
2023/08/11 08:29:24;;;;;;;3.50;2.90;;;;;;;29.72;37.77;97990.78;5088855;28;20199;-70
2023/08/11 08:31:50;;;;;;;3.50;3.20;;;;;;;29.82;36.25;97992.72;5088531;28;20192;-70
2023/08/11 08:34:15;;;;;;;3.30;3.00;;;;;;;29.91;36.25;97993.06;5082161;28;20201;-69
2023/08/11 08:36:40;;;;;;;5.53;3.13;;;;;;;29.78;36.04;97992.44;5082939;28;20178;-70
2023/08/11 08:39:07;;;;;;;3.17;2.87;;;;;;;30.03;36.77;97991.03;5083873;28;20178;-71
2023/08/11 08:41:36;;;;;;;4.20;3.10;;;;;;;30.22;36.33;97987.91;5085631;28;20207;-71
2023/08/11 08:44:02;;;;;;;6.80;3.10;;;;;;;30.36;35.73;97991.78;5090519;28;20525;-70
2023/08/11 08:46:28;;;;;;;4.53;3.07;;;;;;;30.52;35.45;97995.34;5089313;28;20479;-70
2023/08/11 08:49:11;;;;;;;3.63;2.90;;;;;;;30.59;35.36;97992.44;5088518;28;20233;-70
2023/08/11 08:51:39;;;;;;;2.73;2.53;;;;;;;30.79;34.95;97989.81;5087586;28;20763;-71
2023/08/11 08:54:08;;;;;;;10.37;3.23;;;;;;;30.64;34.20;97984.34;5067393;28;20475;-71
2023/08/11 08:56:35;;;;;;;6.43;3.10;;;;;;;30.90;34.98;97982.53;5082313;28;20424;-70
2023/08/11 08:59:00;;;;;;;3.27;2.97;;;;;;;31.06;34.05;97983.38;5089065;28;20418;-72
2023/08/11 09:01:26;;;;;;;3.30;2.87;;;;;;;31.13;33.37;97979.66;5088739;28;20444;-70
2023/08/11 09:03:52;;;;;;;2.90;2.70;;;;;;;31.03;33.44;97983.13;5084683;28;20701;-70
2023/08/11 09:06:18;;;;;;;3.17;2.87;;;;;;;31.25;33.81;97978.31;5080140;28;20174;-71
2023/08/11 09:08:45;;;;;;;3.17;2.90;;;;;;;31.32;33.38;97975.34;5080960;28;20428;-70
2023/08/11 09:11:10;;;;;;;6.07;3.27;;;;;;;31.48;33.55;97973.44;5087126;28;20408;-69
2023/08/11 09:13:37;;;;;;;5.03;2.70;;;;;;;31.68;33.73;97969.13;5087115;28;20793;-69
2023/08/11 09:16:03;;;;;;;6.17;3.00;;;;;;;31.82;33.27;97966.69;5083414;28;20178;-69
2023/08/11 09:18:28;;;;;;;6.60;3.10;;;;;;;31.93;33.15;97954.75;5081288;28;20747;-70
2023/08/11 09:20:54;;;;;;;4.27;3.17;;;;;;;32.10;32.98;97961.75;5083016;28;20193;-70
2023/08/11 09:23:19;;;;;;;3.10;2.90;;;;;;;32.26;32.89;97962.56;5082779;28;20192;-70
2023/08/11 09:25:49;;;;;;;3.50;3.20;;;;;;;32.40;32.56;97960.88;5080161;28;20205;-69
2023/08/11 09:28:14;;;;;;;4.60;3.00;;;;;;;32.35;32.07;97968.22;5085983;28;20188;-70
2023/08/11 09:30:41;;;;;;;6.97;2.97;;;;;;;32.35;32.03;97960.09;5034667;28;1375512;-71
2023/08/11 09:33:07;;;;;;;3.33;3.03;;;;;;;32.06;32.10;97960.69;5082856;28;20197;-70
2023/08/11 09:35:33;;;;;;;7.20;2.80;;;;;;;32.13;33.01;97962.03;5064527;28;20428;-70
2023/08/11 09:37:59;;;;;;;5.17;2.73;;;;;;;32.37;32.34;97957.91;5082736;28;20904;-70
2023/08/11 09:40:25;;;;;;;5.00;3.13;;;;;;;32.61;31.57;97961.63;5080810;28;20209;-71
2023/08/11 09:42:55;;;;;;;6.30;3.07;;;;;;;32.80;31.78;97961.00;5090149;28;20421;-69
2023/08/11 09:45:21;;;;;;;5.30;2.90;;;;;;;32.97;31.76;97959.81;5079570;28;20447;-71
2023/08/11 09:47:47;;;;;;;4.73;3.00;;;;;;;33.09;31.77;97955.66;5086792;28;20485;-69
2023/08/11 09:50:13;;;;;;;3.90;2.60;;;;;;;33.24;31.99;97957.47;5075003;28;20417;-71
2023/08/11 09:52:39;;;;;;;3.20;2.90;;;;;;;32.92;31.15;97960.66;5078041;28;20173;-69
2023/08/11 09:55:06;;;;;;;2.97;2.67;;;;;;;33.10;31.77;97956.47;5082922;28;20436;-70
2023/08/11 09:57:34;;;;;;;4.33;3.43;;;;;;;33.04;30.91;97952.16;5083628;28;20240;-70
2023/08/11 10:00:00;;;;;;;3.33;3.00;;;;;;;33.28;31.05;97956.88;5080698;28;20424;-70
2023/08/11 10:02:30;;;;;;;7.13;2.80;;;;;;;33.55;31.16;97956.44;5084336;28;20485;-69
2023/08/11 10:05:01;;;;;;;4.30;3.10;;;;;;;33.71;30.57;97950.88;5085758;28;20236;-69
2023/08/11 10:07:40;;;;;;;4.03;2.93;;;;;;;33.92;30.23;97955.03;5079064;28;20497;-69
2023/08/11 10:10:12;;;;;;;2.70;2.50;;;;;;;34.06;30.26;97949.72;5083620;28;20785;-70
2023/08/11 10:12:40;;;;;;;4.47;2.80;;;;;;;34.15;29.34;97953.41;5088291;28;20439;-70
2023/08/11 10:15:08;;;;;;;3.10;2.73;;;;;;;34.20;29.40;97949.84;5078856;28;20437;-70
2023/08/11 10:17:35;;;;;;;3.13;2.83;;;;;;;34.37;29.78;97948.56;5087036;28;20960;-70
2023/08/11 10:20:04;;;;;;;4.07;2.63;;;;;;;34.52;29.10;97953.03;5069958;28;20435;-70
2023/08/11 10:22:31;;;;;;;3.67;3.03;;;;;;;34.60;29.06;97952.38;5080532;28;20503;-69
2023/08/11 10:24:57;;;;;;;3.07;2.77;;;;;;;34.72;28.95;97955.47;5082345;28;20486;-70
2023/08/11 10:27:23;;;;;;;3.17;2.90;;;;;;;34.85;29.08;97948.50;5081583;28;20802;-70
2023/08/11 10:29:50;;;;;;;7.77;2.50;;;;;;;34.89;28.92;97949.53;5058317;28;20201;-69
2023/08/11 10:32:16;;;;;;;3.40;3.03;;;;;;;34.80;28.54;97953.19;5076836;28;20436;-69
2023/08/11 10:34:41;;;;;;;10.50;3.00;;;;;;;34.79;28.77;97955.13;5085405;28;20795;-70
2023/08/11 10:37:07;;;;;;;3.40;3.10;;;;;;;34.94;29.40;97951.41;5077475;28;20186;-71
2023/08/11 10:39:33;;;;;;;5.87;2.63;;;;;;;34.88;29.00;97952.56;5085603;28;20721;-70
2023/08/11 10:41:58;;;;;;;3.53;3.23;;;;;;;35.02;28.48;97952.66;5084114;28;20551;-69
2023/08/11 10:44:27;;;;;;;4.37;2.60;;;;;;;35.12;28.54;97955.22;5073224;28;20300;-70
2023/08/11 10:46:53;;;;;;;4.00;2.73;;;;;;;35.16;28.31;97952.72;5083507;28;20224;-69
2023/08/11 10:49:31;;;;;;;4.43;2.83;;;;;;;35.21;28.49;97949.91;5077799;28;20924;-69
2023/08/11 10:51:58;;;;;;;3.20;2.80;;;;;;;35.19;28.42;97952.94;5077353;28;20719;-69
2023/08/11 10:54:25;;;;;;;5.10;3.00;;;;;;;35.26;28.86;97951.75;5077988;28;20479;-69
2023/08/11 10:56:51;;;;;;;3.17;2.93;;;;;;;35.31;28.35;97957.13;5080030;28;20465;-70
2023/08/11 10:59:17;;;;;;;3.33;3.03;;;;;;;35.35;28.56;97958.94;5073552;28;20420;-70
2023/08/11 11:01:48;;;;;;;2.70;2.50;;;;;;;35.47;28.12;97960.41;5078746;28;20830;-68
2023/08/11 11:04:15;;;;;;;4.27;2.90;;;;;;;35.49;27.93;97955.50;5068620;28;20454;-70
2023/08/11 11:06:41;;;;;;;5.60;3.40;;;;;;;35.53;27.64;97959.25;5073676;28;20515;-70
2023/08/11 11:09:08;;;;;;;3.90;3.17;;;;;;;35.57;27.72;97952.06;5054412;28;21211;-70
2023/08/11 11:11:36;;;;;;;5.50;3.20;;;;;;;35.63;27.85;97953.63;5059004;28;20461;-69
2023/08/11 11:14:02;;;;;;;3.20;3.00;;;;;;;35.62;28.19;97946.53;5070733;28;20439;-69
2023/08/11 11:16:27;;;;;;;6.60;3.23;;;;;;;35.60;28.07;97945.22;5078005;28;20455;-70
2023/08/11 11:18:53;;;;;;;3.23;2.93;;;;;;;35.59;27.90;97951.78;5084740;28;20216;-71
2023/08/11 11:21:19;;;;;;;3.40;3.10;;;;;;;35.58;28.01;97948.25;5078288;28;20765;-69
2023/08/11 11:23:48;;;;;;;2.83;2.60;;;;;;;35.48;27.87;97937.53;5085470;28;22977;-70
2023/08/11 11:26:16;;;;;;;4.77;3.17;;;;;;;35.60;28.25;97937.84;5079902;28;20269;-69
2023/08/11 11:28:42;;;;;;;5.60;3.37;;;;;;;35.71;27.89;97943.94;5095692;28;20430;-71